Hartford Brainard Airport
KHFD : now visible

Airfield :











YOU CAN JOIN US ON...

 
LOGIN :

Register | Disclaimer

   EN    FR    IT 

 









Legend :    VFR   Marginal VFR   IFR   Intensive IFR   Very Intensive IFR
Visi :
Ceiling :
>= 8 km
>= 3000ft
5 to 8 km
1000 to 3000 ft
1500m to 5 km
500 to 1000 ft
800 to 1500m
200 to 500 ft
< 800m
< 200 ft
Symbols :   Thunderstorms  Fog  Heavy snow  Heavy precipitations  Wind > 20 kt







- Airport Elevation : 18 ft


KHFD - Hartford Brainard

CURRENT METAR :
  • 260153Z 06004KT 10SM CLR 17/11 A3028 RMK AO2 SLP253 T01670111

EXPIRED METARs :
  • 260053Z 08005KT 10SM BKN060 17/12 A3028 RMK AO2 SLP253 T01720117
  • 252353Z 06005KT 10SM CLR 19/12 A3026 RMK AO2 SLP245 T01890117 10233 20189 53006

TAF N/A
No reported NOTAMs for that airfield.



MET'MAP, your aeronautical weather chart ! - Copyright ORBIFLY December 2007 - Disclaimer

ORBIFLY MET'MAP TEAM :

Programming & Development : Alexandra Zaïnal
Concept & Development : Baudouin d'Aumeries
Co-Development & Prog : Marc-Olivier Méhu
Technical & hardware support : Manuel Goepfert

Contact : metmap@orbifly.com




SOURCES & CREDITS :

   NOAA       Earth
Advisory